createdAt,value
2022-10-28T00:01:09.759Z,6.37
2022-10-28T00:03:41.641Z,6.87
2022-10-28T00:06:11.331Z,7.33
2022-10-28T00:08:38.021Z,6.47
2022-10-28T00:11:15.782Z,7.00
2022-10-28T00:13:43.180Z,6.50
2022-10-28T00:16:18.829Z,6.83
2022-10-28T00:18:46.329Z,8.20
2022-10-28T00:21:15.623Z,8.70
2022-10-28T00:23:42.786Z,5.40
2022-10-28T00:26:15.327Z,6.80
2022-10-28T00:28:44.097Z,6.03
2022-10-28T00:31:12.808Z,8.50
2022-10-28T00:33:39.413Z,6.97
2022-10-28T00:36:20.482Z,8.17
2022-10-28T00:38:49.277Z,7.80
2022-10-28T00:41:28.433Z,7.70
2022-10-28T00:43:57.427Z,6.70
2022-10-28T00:46:30.041Z,6.73
2022-10-28T00:49:11.426Z,9.17
2022-10-28T00:51:37.911Z,8.00
2022-10-28T00:54:06.207Z,8.10
2022-10-28T00:56:37.812Z,9.37
2022-10-28T00:59:08.687Z,8.70
2022-10-28T01:01:35.133Z,6.30
2022-10-28T01:04:01.633Z,7.33
2022-10-28T01:06:29.012Z,6.07
2022-10-28T01:08:59.042Z,8.20
2022-10-28T01:11:59.350Z,6.77
2022-10-28T01:15:15.398Z,7.33
2022-10-28T01:17:47.688Z,7.10
2022-10-28T01:20:51.426Z,6.00
2022-10-28T01:23:36.204Z,9.03
2022-10-28T01:26:17.186Z,7.20
2022-10-28T01:28:58.645Z,6.40
2022-10-28T01:31:40.598Z,5.90
2022-10-28T01:34:33.523Z,6.67
2022-10-28T01:37:03.275Z,7.37
2022-10-28T01:39:59.763Z,8.00
2022-10-28T01:42:32.051Z,5.97
2022-10-28T01:44:58.456Z,7.00
2022-10-28T01:48:00.053Z,5.67
2022-10-28T01:50:49.415Z,5.63
2022-10-28T01:53:20.906Z,5.50
2022-10-28T01:55:51.886Z,5.53
2022-10-28T01:58:23.306Z,5.93
2022-10-28T02:00:50.546Z,6.10
2022-10-28T02:03:17.722Z,7.20
2022-10-28T02:05:54.541Z,7.30
2022-10-28T02:08:54.635Z,5.80
2022-10-28T02:11:33.957Z,7.17
2022-10-28T02:14:18.890Z,6.93
2022-10-28T02:16:48.297Z,6.17
2022-10-28T02:19:35.903Z,6.03
2022-10-28T02:22:11.995Z,5.70
2022-10-28T02:24:47.862Z,6.90
2022-10-28T02:27:32.766Z,8.30
2022-10-28T02:30:07.955Z,6.07
2022-10-28T02:32:39.868Z,5.07
2022-10-28T02:35:14.401Z,8.53
2022-10-28T02:37:43.315Z,5.90
2022-10-28T02:40:14.716Z,6.40
2022-10-28T02:42:47.590Z,7.30
2022-10-28T02:45:18.255Z,6.83
2022-10-28T02:48:09.235Z,7.60
2022-10-28T02:50:41.838Z,7.03
2022-10-28T02:53:16.890Z,4.60
2022-10-28T02:55:49.024Z,7.17
2022-10-28T02:58:15.456Z,5.37
2022-10-28T03:00:45.131Z,5.47
2022-10-28T03:03:12.003Z,6.37
2022-10-28T03:05:38.389Z,7.10
2022-10-28T03:08:05.267Z,4.63
2022-10-28T03:10:31.601Z,7.50
2022-10-28T03:12:57.956Z,5.60
2022-10-28T03:15:24.305Z,4.60
2022-10-28T03:17:51.030Z,6.60
2022-10-28T03:20:18.663Z,4.80
2022-10-28T03:22:45.051Z,5.00
2022-10-28T03:25:11.399Z,6.20
2022-10-28T03:27:41.174Z,5.27
2022-10-28T03:30:07.995Z,6.67
2022-10-28T03:32:34.373Z,6.27
2022-10-28T03:35:00.747Z,6.57
2022-10-28T03:37:27.083Z,5.73
2022-10-28T03:39:53.512Z,6.30
2022-10-28T03:42:19.860Z,5.20
2022-10-28T03:44:46.259Z,5.00
2022-10-28T03:47:12.603Z,6.23
2022-10-28T03:49:38.988Z,4.93
2022-10-28T03:52:05.327Z,4.40
2022-10-28T03:54:31.666Z,3.63
2022-10-28T03:56:58.020Z,3.83
2022-10-28T03:59:24.396Z,6.10
2022-10-28T04:01:50.942Z,5.73
2022-10-28T04:04:17.443Z,4.53
2022-10-28T04:06:43.801Z,5.57
2022-10-28T04:09:10.158Z,5.30
2022-10-28T04:11:36.557Z,4.90
2022-10-28T04:14:02.905Z,5.50
2022-10-28T04:16:29.325Z,2.97
2022-10-28T04:18:55.773Z,3.27
2022-10-28T04:21:22.170Z,4.20
2022-10-28T04:23:48.516Z,4.30
2022-10-28T04:26:15.354Z,4.70
2022-10-28T04:28:41.696Z,4.70
2022-10-28T04:31:09.467Z,5.80
2022-10-28T04:33:35.838Z,3.43
2022-10-28T04:36:02.292Z,3.30
2022-10-28T04:38:28.695Z,4.30
2022-10-28T04:40:55.155Z,4.70
2022-10-28T04:43:21.547Z,5.50
2022-10-28T04:45:47.862Z,5.53
2022-10-28T04:48:14.391Z,5.30
2022-10-28T04:50:40.820Z,5.90
2022-10-28T04:53:07.296Z,4.30
2022-10-28T04:55:33.715Z,5.43
2022-10-28T04:58:01.061Z,3.87
2022-10-28T05:00:28.849Z,5.07
2022-10-28T05:02:55.495Z,4.80
2022-10-28T05:05:22.096Z,3.10
2022-10-28T05:07:48.466Z,4.63
2022-10-28T05:10:18.227Z,5.23
2022-10-28T05:12:45.824Z,7.67
2022-10-28T05:15:13.683Z,4.27
2022-10-28T05:17:44.291Z,3.80
2022-10-28T05:20:12.027Z,5.10
2022-10-28T05:22:38.572Z,4.63
2022-10-28T05:25:05.262Z,5.30
2022-10-28T05:27:32.290Z,6.80
2022-10-28T05:29:58.741Z,7.20
2022-10-28T05:32:25.096Z,5.33
2022-10-28T05:34:51.425Z,5.50
2022-10-28T05:37:17.783Z,6.00
2022-10-28T05:39:44.120Z,4.57
2022-10-28T05:42:12.292Z,6.70
2022-10-28T05:44:38.651Z,4.87
2022-10-28T05:47:05.009Z,6.47
2022-10-28T05:49:31.330Z,6.67
2022-10-28T05:51:57.677Z,5.43
2022-10-28T05:54:24.078Z,5.97
2022-10-28T05:56:50.424Z,4.40
2022-10-28T05:59:16.799Z,5.20
2022-10-28T06:01:43.200Z,4.37
2022-10-28T06:04:09.768Z,4.43
2022-10-28T06:06:36.191Z,2.90
2022-10-28T06:09:02.824Z,6.10
2022-10-28T06:11:27.657Z,4.80
2022-10-28T06:13:54.028Z,4.07
2022-10-28T06:16:20.465Z,3.53
2022-10-28T06:18:46.826Z,5.70
2022-10-28T06:21:13.253Z,4.60
2022-10-28T06:23:39.653Z,3.93
2022-10-28T06:26:06.000Z,4.50
2022-10-28T06:28:32.400Z,6.67
2022-10-28T06:31:07.608Z,5.27
2022-10-28T06:33:34.066Z,4.23
2022-10-28T06:36:00.680Z,3.40
2022-10-28T06:38:27.737Z,5.70
2022-10-28T06:40:56.775Z,6.17
2022-10-28T06:43:23.308Z,4.67
2022-10-28T06:45:54.778Z,5.90
2022-10-28T06:48:23.280Z,4.30
2022-10-28T06:50:49.872Z,6.00
2022-10-28T06:53:16.403Z,4.93
2022-10-28T06:55:42.734Z,5.40
2022-10-28T06:58:09.701Z,4.90
2022-10-28T07:00:36.476Z,4.00
2022-10-28T07:03:03.054Z,3.50
2022-10-28T07:05:31.814Z,5.53
2022-10-28T07:07:58.184Z,4.90
2022-10-28T07:10:24.614Z,4.20
2022-10-28T07:12:52.817Z,5.40
2022-10-28T07:15:19.717Z,5.93
2022-10-28T07:17:52.232Z,4.33
2022-10-28T07:20:18.603Z,3.50
2022-10-28T07:22:44.920Z,6.40
2022-10-28T07:25:11.257Z,6.57
2022-10-28T07:27:37.599Z,3.97
2022-10-28T07:30:04.523Z,4.33
2022-10-28T07:32:34.077Z,5.13
2022-10-28T07:35:00.489Z,4.90
2022-10-28T07:37:26.863Z,5.70
2022-10-28T07:39:53.293Z,4.93
2022-10-28T07:42:19.654Z,6.10
2022-10-28T07:44:46.023Z,5.87
2022-10-28T07:47:12.363Z,6.13
2022-10-28T07:49:38.724Z,5.80
2022-10-28T07:52:05.120Z,6.40
2022-10-28T07:54:31.915Z,6.17
2022-10-28T07:56:58.255Z,5.63
2022-10-28T07:59:26.864Z,4.93
2022-10-28T08:01:53.949Z,5.87
2022-10-28T08:04:20.339Z,5.43
2022-10-28T08:06:46.717Z,3.50
2022-10-28T08:09:13.109Z,4.37
2022-10-28T08:11:39.442Z,6.30
2022-10-28T08:14:05.817Z,5.73
2022-10-28T08:16:32.157Z,4.70
2022-10-28T08:18:58.521Z,4.80
2022-10-28T08:21:26.981Z,4.00
2022-10-28T08:23:54.665Z,6.20
2022-10-28T08:26:21.129Z,6.23
2022-10-28T08:28:47.540Z,4.73
2022-10-28T08:31:14.226Z,4.37
2022-10-28T08:33:45.215Z,3.63
2022-10-28T08:36:13.624Z,3.73
2022-10-28T08:38:45.161Z,3.77
2022-10-28T08:41:40.039Z,3.97
2022-10-28T08:44:44.634Z,3.97
2022-10-28T08:47:33.119Z,4.23
2022-10-28T08:50:12.007Z,3.57
2022-10-28T08:52:45.397Z,4.77
2022-10-28T08:55:20.762Z,3.43
2022-10-28T08:57:59.330Z,3.83
2022-10-28T09:00:30.357Z,4.77
2022-10-28T09:03:06.840Z,3.90
2022-10-28T09:05:33.613Z,3.87
2022-10-28T09:08:02.373Z,3.47
2022-10-28T09:11:01.028Z,4.30
2022-10-28T09:13:30.120Z,4.70
2022-10-28T09:16:15.181Z,4.60
2022-10-28T09:18:54.226Z,5.73
2022-10-28T09:21:31.796Z,5.17
2022-10-28T09:24:03.654Z,4.83
2022-10-28T09:26:59.429Z,6.90
2022-10-28T09:29:32.088Z,4.23
2022-10-28T09:32:17.735Z,5.10
2022-10-28T09:34:54.583Z,5.50
2022-10-28T09:37:37.160Z,4.47
2022-10-28T09:40:21.645Z,4.20
2022-10-28T09:42:58.502Z,4.00
2022-10-28T09:45:30.818Z,4.50
2022-10-28T09:48:03.022Z,4.50
2022-10-28T09:50:31.955Z,4.53
2022-10-28T09:53:36.265Z,3.27
2022-10-28T09:56:04.576Z,4.50
2022-10-28T09:58:32.723Z,5.40
2022-10-28T10:00:59.237Z,5.07
2022-10-28T10:03:25.652Z,4.10
2022-10-28T10:05:56.774Z,4.90
2022-10-28T10:08:23.832Z,4.03
2022-10-28T10:10:54.711Z,4.93
2022-10-28T10:13:25.179Z,5.13
2022-10-28T10:15:55.454Z,5.90
2022-10-28T10:18:25.789Z,4.87
2022-10-28T10:21:00.360Z,4.97
2022-10-28T10:23:31.008Z,4.43
2022-10-28T10:26:01.176Z,4.77
2022-10-28T10:28:28.616Z,3.40
2022-10-28T10:30:57.607Z,3.60
2022-10-28T10:33:28.330Z,4.27
2022-10-28T10:36:23.661Z,4.90
2022-10-28T10:38:55.671Z,4.50
2022-10-28T10:41:42.581Z,3.27
2022-10-28T10:44:21.279Z,4.30
2022-10-28T10:47:04.916Z,3.63
2022-10-28T10:49:36.292Z,4.13
2022-10-28T10:52:09.612Z,4.00
2022-10-28T10:54:37.989Z,3.20
2022-10-28T10:57:22.200Z,3.60
2022-10-28T10:59:52.143Z,4.70
2022-10-28T11:02:28.537Z,3.93
2022-10-28T11:04:58.881Z,4.00
2022-10-28T11:07:25.969Z,3.73
2022-10-28T11:09:52.529Z,4.03
2022-10-28T11:12:32.773Z,3.47
2022-10-28T11:15:04.741Z,3.83
2022-10-28T11:17:34.129Z,3.20
2022-10-28T11:20:23.467Z,2.87
2022-10-28T11:23:17.827Z,3.90
2022-10-28T11:25:49.235Z,2.90
2022-10-28T11:28:38.636Z,2.97
2022-10-28T11:31:32.249Z,3.33
2022-10-28T11:34:26.565Z,2.40
2022-10-28T11:37:23.987Z,3.40
2022-10-28T11:40:17.273Z,2.33
2022-10-28T11:43:02.285Z,2.87
2022-10-28T11:46:03.423Z,3.33
2022-10-28T11:48:46.301Z,3.23
2022-10-28T11:51:29.136Z,3.60
2022-10-28T11:54:06.843Z,3.17
2022-10-28T11:56:49.845Z,2.70
2022-10-28T11:59:36.025Z,4.23
2022-10-28T12:02:21.081Z,3.80
2022-10-28T12:05:17.993Z,2.63
2022-10-28T12:08:15.329Z,3.07
2022-10-28T12:10:47.956Z,4.00
2022-10-28T12:13:49.952Z,3.20
2022-10-28T12:16:21.851Z,3.40
2022-10-28T12:19:03.528Z,2.43
2022-10-28T12:21:36.548Z,2.70
2022-10-28T12:24:09.246Z,2.60
2022-10-28T12:26:47.687Z,2.53
2022-10-28T12:29:33.822Z,2.50
2022-10-28T12:32:05.465Z,2.13
2022-10-28T12:37:13.719Z,1.50
2022-10-28T12:39:47.710Z,2.00
2022-10-28T12:42:34.007Z,4.00
2022-10-28T12:45:05.152Z,1.93
2022-10-28T12:47:40.530Z,3.13
2022-10-28T12:50:27.491Z,2.10
2022-10-28T12:53:05.806Z,3.20
2022-10-28T12:55:37.565Z,1.93
2022-10-28T12:58:10.120Z,1.63
2022-10-28T13:00:43.313Z,1.73
2022-10-28T13:03:14.805Z,2.93
2022-10-28T13:05:47.875Z,2.30
2022-10-28T13:11:41.882Z,1.80
2022-10-28T13:14:23.503Z,2.17
2022-10-28T13:17:25.846Z,1.83
2022-10-28T13:19:54.895Z,1.57
2022-10-28T13:22:43.335Z,2.07
2022-10-28T13:25:39.813Z,1.73
2022-10-28T13:28:07.845Z,2.17
2022-10-28T13:30:35.204Z,2.10
2022-10-28T13:33:07.087Z,1.90
2022-10-28T13:35:34.129Z,1.63
2022-10-28T13:38:02.384Z,1.27
2022-10-28T13:40:31.793Z,2.10
2022-10-28T13:42:59.828Z,2.17
2022-10-28T13:45:48.148Z,1.90
2022-10-28T13:48:29.576Z,1.50
2022-10-28T13:51:11.256Z,2.13
2022-10-28T13:53:41.493Z,1.40
2022-10-28T13:56:16.946Z,2.50
2022-10-28T13:58:55.086Z,2.13
2022-10-28T14:01:38.387Z,2.80
2022-10-28T14:04:06.028Z,1.80
2022-10-28T14:06:34.988Z,1.77
2022-10-28T14:09:01.859Z,2.23
2022-10-28T14:11:30.295Z,2.77
2022-10-28T14:14:01.567Z,2.20
2022-10-28T14:16:39.753Z,2.40
2022-10-28T14:19:21.307Z,1.87
2022-10-28T14:22:02.665Z,1.40
2022-10-28T14:24:43.829Z,1.73
2022-10-28T14:27:12.109Z,1.97
2022-10-28T14:29:50.147Z,2.30
2022-10-28T14:32:31.659Z,2.20
2022-10-28T14:35:01.858Z,3.37
2022-10-28T14:38:01.479Z,2.80
2022-10-28T14:40:51.465Z,1.70
2022-10-28T14:43:32.937Z,1.63
2022-10-28T14:46:13.666Z,3.17
2022-10-28T14:48:46.901Z,2.50
2022-10-28T14:51:23.458Z,2.73
2022-10-28T14:53:54.783Z,2.27
2022-10-28T14:56:25.145Z,2.97
2022-10-28T14:58:53.974Z,2.60
2022-10-28T15:01:24.390Z,3.07
2022-10-28T15:03:52.792Z,2.80
2022-10-28T15:06:41.638Z,2.43
2022-10-28T15:09:21.901Z,2.50
2022-10-28T15:12:16.720Z,2.07
2022-10-28T15:14:52.173Z,2.83
2022-10-28T15:17:22.800Z,2.47
2022-10-28T15:20:00.284Z,2.27
2022-10-28T15:22:30.409Z,2.10
2022-10-28T15:24:59.637Z,3.83
2022-10-28T15:27:30.111Z,2.03
2022-10-28T15:29:56.693Z,2.00
2022-10-28T15:32:23.053Z,2.30
2022-10-28T15:34:49.695Z,2.73
2022-10-28T15:37:28.241Z,1.60
2022-10-28T15:40:12.869Z,2.17
2022-10-28T15:42:53.517Z,2.60
2022-10-28T15:45:24.371Z,3.20
2022-10-28T15:47:51.966Z,2.00
2022-10-28T15:50:18.517Z,2.37
2022-10-28T15:52:52.316Z,1.70
2022-10-28T15:55:18.860Z,2.57
2022-10-28T15:57:51.317Z,3.17
2022-10-28T16:00:29.337Z,1.30
2022-10-28T16:03:08.209Z,3.47
2022-10-28T16:05:34.534Z,2.90
2022-10-28T16:08:03.795Z,3.60
2022-10-28T16:10:43.019Z,1.97
2022-10-28T16:13:18.708Z,2.37
2022-10-28T16:15:54.490Z,2.40
2022-10-28T16:18:23.101Z,2.00
2022-10-28T16:20:49.841Z,1.50
2022-10-28T16:23:22.363Z,2.27
2022-10-28T16:25:48.720Z,2.00
2022-10-28T16:28:21.380Z,1.80
2022-10-28T16:30:50.190Z,1.97
2022-10-28T16:33:16.562Z,2.50
2022-10-28T16:35:42.902Z,2.50
2022-10-28T16:38:12.773Z,2.83
2022-10-28T16:40:55.043Z,2.33
2022-10-28T16:43:23.753Z,2.03
2022-10-28T16:45:52.132Z,2.40
2022-10-28T16:48:19.884Z,2.77
2022-10-28T16:50:51.787Z,1.53
2022-10-28T16:53:18.694Z,1.93
2022-10-28T16:55:45.137Z,1.57
2022-10-28T16:58:11.696Z,2.63
2022-10-28T17:00:38.541Z,3.07
2022-10-28T17:03:05.409Z,2.53
2022-10-28T17:05:32.579Z,1.77
2022-10-28T17:07:59.799Z,2.47
2022-10-28T17:10:27.060Z,1.50
2022-10-28T17:12:53.745Z,2.30
2022-10-28T17:15:20.664Z,2.30
2022-10-28T17:17:52.125Z,4.47
2022-10-28T17:20:19.290Z,1.80
2022-10-28T17:22:45.822Z,2.03
2022-10-28T17:25:12.390Z,2.50
2022-10-28T17:27:38.925Z,4.27
2022-10-28T17:30:06.486Z,2.13
2022-10-28T17:32:32.883Z,2.47
2022-10-28T17:34:59.256Z,5.03
2022-10-28T17:37:25.609Z,3.87
2022-10-28T17:39:52.353Z,5.67
2022-10-28T17:42:22.110Z,3.00
2022-10-28T17:44:48.525Z,6.77
2022-10-28T17:47:14.937Z,2.80
2022-10-28T17:49:41.307Z,3.97
2022-10-28T17:52:07.681Z,2.90
2022-10-28T17:54:34.087Z,2.10
2022-10-28T17:57:00.496Z,2.67
2022-10-28T17:59:26.833Z,2.47
2022-10-28T18:01:54.382Z,2.50
2022-10-28T18:04:26.003Z,2.97
2022-10-28T18:06:53.827Z,4.27
2022-10-28T18:09:20.698Z,2.60
2022-10-28T18:11:47.027Z,3.47
2022-10-28T18:14:13.495Z,3.57
2022-10-28T18:16:39.975Z,5.07
2022-10-28T18:19:07.287Z,4.87
2022-10-28T18:21:34.228Z,7.97
2022-10-28T18:24:06.331Z,3.73
2022-10-28T18:26:35.236Z,3.50
2022-10-28T18:29:03.967Z,4.40
2022-10-28T18:31:32.968Z,4.77
2022-10-28T18:34:00.925Z,4.63
2022-10-28T18:36:30.563Z,2.53
2022-10-28T18:38:57.634Z,2.33
2022-10-28T18:41:26.696Z,2.97
2022-10-28T18:43:55.071Z,3.40
2022-10-28T18:46:21.943Z,3.23
2022-10-28T18:48:48.922Z,1.20
2022-10-28T18:51:16.015Z,4.77
2022-10-28T18:53:44.886Z,2.07
2022-10-28T18:56:16.781Z,1.77
2022-10-28T18:58:44.876Z,2.63
2022-10-28T19:01:13.552Z,2.30
2022-10-28T19:03:40.818Z,2.50
2022-10-28T19:06:12.700Z,1.83
2022-10-28T19:08:39.846Z,2.50
2022-10-28T19:11:07.176Z,1.73
2022-10-28T19:13:35.952Z,1.50
2022-10-28T19:16:02.595Z,2.53
2022-10-28T19:18:29.334Z,1.93
2022-10-28T19:21:08.136Z,1.83
2022-10-28T19:23:34.581Z,3.50
2022-10-28T19:26:01.170Z,2.20
2022-10-28T19:28:27.780Z,1.60
2022-10-28T19:31:02.415Z,2.13
2022-10-28T19:33:30.436Z,1.97
2022-10-28T19:36:01.412Z,1.90
2022-10-28T19:38:31.358Z,2.27
2022-10-28T19:41:02.487Z,1.67
2022-10-28T19:43:29.166Z,1.97
2022-10-28T19:46:06.417Z,1.97
2022-10-28T19:48:33.043Z,1.73
2022-10-28T19:51:00.188Z,3.17
2022-10-28T19:53:26.607Z,3.30
2022-10-28T19:55:57.724Z,1.57
2022-10-28T19:58:24.968Z,3.83
2022-10-28T20:01:06.123Z,4.07
2022-10-28T20:03:34.775Z,2.70
2022-10-28T20:06:13.864Z,3.83
2022-10-28T20:08:46.236Z,3.90
2022-10-28T20:11:16.148Z,2.60
2022-10-28T20:13:43.109Z,3.60
2022-10-28T20:16:14.087Z,2.13
2022-10-28T20:18:40.933Z,2.67
2022-10-28T20:21:13.990Z,2.90
2022-10-28T20:23:44.866Z,3.23
2022-10-28T20:26:12.453Z,3.40
2022-10-28T20:28:39.020Z,2.87
2022-10-28T20:31:10.562Z,2.83
2022-10-28T20:33:39.116Z,2.30
2022-10-28T20:36:07.203Z,2.53
2022-10-28T20:38:33.901Z,2.50
2022-10-28T20:41:00.930Z,3.03
2022-10-28T20:43:29.149Z,3.30
2022-10-28T20:46:00.999Z,1.80
2022-10-28T20:48:29.662Z,2.30
2022-10-28T20:50:58.352Z,4.07
2022-10-28T20:53:26.998Z,2.97
2022-10-28T20:55:55.759Z,3.80
2022-10-28T20:58:25.187Z,2.43
2022-10-28T21:00:55.636Z,3.47
2022-10-28T21:03:22.252Z,2.10
2022-10-28T21:05:48.896Z,2.40
2022-10-28T21:08:15.240Z,1.73
2022-10-28T21:10:42.747Z,3.37
2022-10-28T21:13:09.085Z,3.03
2022-10-28T21:15:37.543Z,1.47
2022-10-28T21:18:05.737Z,1.90
2022-10-28T21:20:34.913Z,2.63
2022-10-28T21:23:01.655Z,1.70
2022-10-28T21:25:28.396Z,4.97
2022-10-28T21:27:59.288Z,2.40
2022-10-28T21:30:26.939Z,1.47
2022-10-28T21:32:53.694Z,3.67
2022-10-28T21:35:20.480Z,2.57
2022-10-28T21:37:46.944Z,3.33
2022-10-28T21:40:13.631Z,3.60
2022-10-28T21:42:40.021Z,2.93
2022-10-28T21:45:07.602Z,2.47
2022-10-28T21:47:34.564Z,1.87
2022-10-28T21:50:00.934Z,2.97
2022-10-28T21:52:27.304Z,3.30
2022-10-28T21:54:53.714Z,2.90
2022-10-28T21:57:20.063Z,3.27
2022-10-28T21:59:49.429Z,2.80
2022-10-28T22:02:15.976Z,3.03
2022-10-28T22:04:42.468Z,2.07
2022-10-28T22:07:08.811Z,2.07
2022-10-28T22:09:37.457Z,2.33
2022-10-28T22:12:04.637Z,2.83
2022-10-28T22:14:31.021Z,4.67
2022-10-28T22:16:57.417Z,4.40
2022-10-28T22:19:24.011Z,5.10
2022-10-28T22:21:50.469Z,5.50
2022-10-28T22:24:16.805Z,2.47
2022-10-28T22:26:43.218Z,2.83
2022-10-28T22:29:09.632Z,4.53
2022-10-28T22:31:35.972Z,3.00
2022-10-28T22:34:02.576Z,3.80
2022-10-28T22:36:29.889Z,3.70
2022-10-28T22:38:56.588Z,3.43
2022-10-28T22:41:28.477Z,4.53
2022-10-28T22:43:57.565Z,3.70
2022-10-28T22:46:26.170Z,2.03
2022-10-28T22:48:53.512Z,3.70
2022-10-28T22:51:20.367Z,2.50
2022-10-28T22:53:47.040Z,3.23
2022-10-28T22:56:22.182Z,3.13
2022-10-28T22:58:53.269Z,2.60
2022-10-28T23:01:20.312Z,2.67
2022-10-28T23:03:49.369Z,2.33
2022-10-28T23:06:18.133Z,3.00
2022-10-28T23:08:45.097Z,2.20
2022-10-28T23:11:12.562Z,3.57
2022-10-28T23:13:39.619Z,2.73
2022-10-28T23:16:11.412Z,3.67
2022-10-28T23:18:38.394Z,2.93
2022-10-28T23:21:06.006Z,2.77
2022-10-28T23:23:32.489Z,3.20
2022-10-28T23:25:58.833Z,2.63
2022-10-28T23:28:25.294Z,3.63
2022-10-28T23:30:51.625Z,3.27
2022-10-28T23:33:17.997Z,3.13
2022-10-28T23:35:44.369Z,2.10
2022-10-28T23:38:16.421Z,3.93
2022-10-28T23:40:42.805Z,2.70
2022-10-28T23:43:09.158Z,4.07
2022-10-28T23:45:35.493Z,2.33
2022-10-28T23:48:01.823Z,2.60
2022-10-28T23:50:28.269Z,2.87
2022-10-28T23:52:55.480Z,2.43
2022-10-28T23:55:22.105Z,2.07
2022-10-28T23:57:48.546Z,2.90
